Time;durP1;ratioP1;P1;durP2;ratioP2;P2;SDS_P1;SDS_P2;PMS_P1;PMS_P2;Temp;Humidity;BMP_temperature;BMP_pressure;BME280_temperature;BME280_humidity;BME280_pressure;Samples;Min_cycle;Max_cycle;Signal;HPM_P1;HPM_P2
2023/06/17 00:00:14;;;;;;;4.40;4.00;;;;;;;12.58;100.00;96935.78;4918332;28;20673;-66
2023/06/17 00:02:43;;;;;;;4.50;4.20;;;;;;;12.53;100.00;96932.09;4944662;28;20225;-68
2023/06/17 00:05:11;;;;;;;5.00;4.70;;;;;;;12.50;100.00;96929.84;4944327;28;20245;-67
2023/06/17 00:07:41;;;;;;;4.80;4.50;;;;;;;12.52;100.00;96936.59;4947895;28;20508;-67
2023/06/17 00:10:10;;;;;;;5.67;4.90;;;;;;;12.59;100.00;96928.63;4911192;28;20240;-66
2023/06/17 00:12:39;;;;;;;4.93;4.63;;;;;;;12.65;100.00;96927.78;4949090;28;20234;-66
2023/06/17 00:15:08;;;;;;;4.87;4.57;;;;;;;12.57;100.00;96915.53;4929758;28;20305;-65
2023/06/17 00:17:35;;;;;;;4.80;4.50;;;;;;;12.64;100.00;96923.50;4935558;28;20509;-66
2023/06/17 00:20:10;;;;;;;5.53;5.03;;;;;;;12.62;100.00;96917.56;4956911;28;20232;-66
2023/06/17 00:22:39;;;;;;;5.30;4.90;;;;;;;12.64;100.00;96910.22;4955094;28;20596;-66
2023/06/17 00:25:07;;;;;;;5.50;5.00;;;;;;;12.72;100.00;96910.03;4932895;28;20202;-67
2023/06/17 00:27:35;;;;;;;5.77;5.37;;;;;;;12.72;100.00;96906.53;4966418;28;20205;-66
2023/06/17 00:30:03;;;;;;;5.03;4.73;;;;;;;12.72;100.00;96899.41;4956124;28;20229;-67
2023/06/17 00:32:31;;;;;;;5.50;5.10;;;;;;;12.76;100.00;96913.09;4951693;28;20456;-66
2023/06/17 00:34:58;;;;;;;5.23;4.63;;;;;;;12.67;100.00;96912.47;4971702;28;20249;-65
2023/06/17 00:37:27;;;;;;;4.80;4.50;;;;;;;12.59;100.00;96912.66;4954172;28;20300;-67
2023/06/17 00:39:55;;;;;;;4.87;4.57;;;;;;;12.58;100.00;96903.06;4974135;28;20225;-66
2023/06/17 00:42:23;;;;;;;5.20;4.90;;;;;;;12.56;100.00;96905.09;4926248;28;20287;-67
2023/06/17 00:44:51;;;;;;;5.50;5.20;;;;;;;12.51;100.00;96916.34;4951048;28;21000;-66
2023/06/17 00:47:18;;;;;;;5.63;5.23;;;;;;;12.49;100.00;96902.44;4952515;28;20724;-67
2023/06/17 00:49:46;;;;;;;5.43;5.13;;;;;;;12.45;100.00;96901.19;4970761;28;20229;-66
2023/06/17 00:52:15;;;;;;;5.40;5.10;;;;;;;12.44;100.00;96903.06;4958363;28;20217;-65
2023/06/17 00:54:47;;;;;;;5.67;5.27;;;;;;;12.41;100.00;96902.63;4964679;28;20637;-66
2023/06/17 00:57:15;;;;;;;5.57;5.27;;;;;;;12.39;100.00;96904.69;4931250;28;20228;-66
2023/06/17 00:59:45;;;;;;;5.80;5.40;;;;;;;12.36;100.00;96889.13;4967383;28;20910;-66
2023/06/17 01:02:13;;;;;;;5.60;5.23;;;;;;;12.30;100.00;96893.41;4953612;28;20209;-66
2023/06/17 01:04:43;;;;;;;5.47;5.07;;;;;;;12.34;100.00;96888.53;4966883;28;20225;-67
2023/06/17 01:07:23;;;;;;;5.67;5.20;;;;;;;12.34;100.00;96888.53;4974970;28;20206;-66
2023/06/17 01:09:56;;;;;;;5.37;5.07;;;;;;;12.38;100.00;96887.94;4957102;28;20348;-65
2023/06/17 01:12:27;;;;;;;5.57;5.17;;;;;;;12.41;100.00;96886.69;4928676;28;20277;-67
2023/06/17 01:14:57;;;;;;;5.13;4.83;;;;;;;12.35;100.00;96883.03;4967738;28;20237;-67
2023/06/17 01:17:25;;;;;;;5.47;5.10;;;;;;;12.39;100.00;96878.09;4953822;28;20237;-67
2023/06/17 01:19:54;;;;;;;5.60;5.23;;;;;;;12.42;100.00;96886.50;4972055;28;20444;-66
2023/06/17 01:22:22;;;;;;;5.63;5.23;;;;;;;12.38;100.00;96882.63;4975646;28;20280;-68
2023/06/17 01:24:51;;;;;;;5.33;5.03;;;;;;;12.40;100.00;96880.56;4955629;28;20293;-67
2023/06/17 01:27:19;;;;;;;5.00;4.70;;;;;;;12.43;100.00;96877.50;4926858;28;20570;-66
2023/06/17 01:29:48;;;;;;;5.30;4.90;;;;;;;12.50;100.00;96885.50;4971065;28;20328;-65
2023/06/17 01:32:17;;;;;;;6.07;5.67;;;;;;;12.50;100.00;96880.19;4972813;28;20280;-66
2023/06/17 01:34:51;;;;;;;6.37;5.80;;;;;;;12.46;100.00;96878.94;4954322;28;21200;-67
2023/06/17 01:37:22;;;;;;;6.13;5.60;;;;;;;12.42;100.00;96883.00;4977844;28;20234;-66
2023/06/17 01:39:53;;;;;;;6.13;5.73;;;;;;;12.35;100.00;96879.53;4957020;28;20336;-65
2023/06/17 01:42:23;;;;;;;5.37;5.00;;;;;;;12.29;100.00;96875.84;4931302;28;20324;-66
2023/06/17 01:44:51;;;;;;;5.93;5.53;;;;;;;12.25;100.00;96883.41;4969944;28;20217;-65
2023/06/17 01:47:24;;;;;;;5.60;5.07;;;;;;;12.16;100.00;96877.47;4975416;28;20272;-64
2023/06/17 01:49:52;;;;;;;5.33;5.03;;;;;;;12.08;100.00;96887.44;4962662;28;20503;-65
2023/06/17 01:52:20;;;;;;;4.90;4.60;;;;;;;11.99;100.00;96889.47;4973912;28;20198;-66
2023/06/17 01:54:47;;;;;;;5.07;4.77;;;;;;;11.91;100.00;96871.88;4955894;28;20901;-65
2023/06/17 01:57:16;;;;;;;5.03;4.53;;;;;;;11.86;100.00;96879.63;4978122;28;20226;-65
2023/06/17 01:59:44;;;;;;;5.20;4.80;;;;;;;11.82;100.00;96878.38;4930094;28;20509;-66
2023/06/17 02:02:12;;;;;;;5.53;5.10;;;;;;;11.77;100.00;96880.81;4973452;28;20216;-65
2023/06/17 02:04:39;;;;;;;5.73;5.37;;;;;;;11.72;100.00;96874.25;4955558;28;20284;-66
2023/06/17 02:07:07;;;;;;;5.40;5.10;;;;;;;11.65;100.00;96875.25;4977743;28;20252;-65
2023/06/17 02:09:35;;;;;;;5.23;4.93;;;;;;;11.56;100.00;96870.13;4954682;28;20233;-66
2023/06/17 02:12:03;;;;;;;5.67;5.17;;;;;;;11.48;100.00;96878.22;4972208;28;20212;-65
2023/06/17 02:14:33;;;;;;;5.20;4.90;;;;;;;11.42;100.00;96877.22;4927658;28;20304;-65
2023/06/17 02:17:02;;;;;;;5.43;5.03;;;;;;;11.35;100.00;96886.94;4953632;28;20212;-65
2023/06/17 02:19:31;;;;;;;5.63;5.23;;;;;;;11.33;100.00;96880.22;4957849;28;20226;-66
2023/06/17 02:22:00;;;;;;;5.67;5.27;;;;;;;11.28;100.00;96871.00;4978501;28;20573;-66
2023/06/17 02:24:27;;;;;;;5.67;5.27;;;;;;;11.25;100.00;96874.06;4974645;28;20225;-65
2023/06/17 02:26:56;;;;;;;5.77;5.20;;;;;;;11.23;100.00;96878.75;4948483;28;20217;-65
2023/06/17 02:29:24;;;;;;;5.30;4.83;;;;;;;11.22;100.00;96882.41;4956514;28;20225;-65
2023/06/17 02:31:54;;;;;;;5.43;5.13;;;;;;;11.17;100.00;96871.53;4955983;28;20228;-65
2023/06/17 02:34:22;;;;;;;5.30;4.90;;;;;;;11.09;100.00;96875.19;4961283;28;20796;-65
2023/06/17 02:36:49;;;;;;;5.60;5.10;;;;;;;11.07;100.00;96874.56;4965262;28;20253;-65
2023/06/17 02:39:17;;;;;;;5.40;5.07;;;;;;;11.06;100.00;96883.53;4972410;28;20249;-67
2023/06/17 02:41:45;;;;;;;5.27;4.97;;;;;;;11.01;100.00;96878.00;4950731;28;21129;-66
2023/06/17 02:44:12;;;;;;;6.00;5.60;;;;;;;10.96;100.00;96883.03;4971448;28;20672;-66
2023/06/17 02:46:40;;;;;;;5.30;4.97;;;;;;;10.94;100.00;96875.28;4928486;28;20553;-65
2023/06/17 02:49:10;;;;;;;5.73;5.40;;;;;;;10.89;100.00;96884.84;4970908;28;20345;-64
2023/06/17 02:51:38;;;;;;;5.80;5.40;;;;;;;10.86;100.00;96883.41;4956783;28;20367;-65
2023/06/17 02:54:06;;;;;;;5.47;5.00;;;;;;;10.81;100.00;96885.81;4975175;28;20723;-65
2023/06/17 02:56:33;;;;;;;5.40;5.10;;;;;;;10.80;100.00;96889.47;4971158;28;20226;-65
2023/06/17 02:59:02;;;;;;;5.40;5.03;;;;;;;10.81;100.00;96888.47;4952431;28;20316;-65
2023/06/17 03:01:31;;;;;;;6.20;5.80;;;;;;;10.71;100.00;96876.34;4940004;28;20198;-65
2023/06/17 03:04:03;;;;;;;5.70;5.30;;;;;;;10.75;100.00;96884.75;4969617;28;20305;-65
2023/06/17 03:06:34;;;;;;;5.67;5.27;;;;;;;10.72;100.00;96877.19;4954855;28;20409;-65
2023/06/17 03:09:03;;;;;;;5.40;5.10;;;;;;;10.70;100.00;96887.97;4976165;28;20230;-66
2023/06/17 03:11:30;;;;;;;5.97;5.57;;;;;;;10.68;100.00;96889.97;4966931;28;20832;-65
2023/06/17 03:13:58;;;;;;;5.83;5.47;;;;;;;10.65;100.00;96886.91;4954981;28;20202;-65
2023/06/17 03:16:26;;;;;;;5.97;5.50;;;;;;;10.63;100.00;96889.75;4968036;28;21407;-66
2023/06/17 03:18:54;;;;;;;6.27;5.70;;;;;;;10.57;100.00;96893.97;4926453;28;20312;-64
2023/06/17 03:21:22;;;;;;;5.73;5.33;;;;;;;10.55;100.00;96893.34;4959183;28;20416;-67
2023/06/17 03:23:51;;;;;;;6.67;6.20;;;;;;;10.56;100.00;96894.97;4917558;28;20312;-68
2023/06/17 03:26:23;;;;;;;6.07;5.57;;;;;;;10.51;100.00;96900.03;4945167;28;20248;-67
2023/06/17 03:28:51;;;;;;;5.80;5.30;;;;;;;10.47;100.00;96900.63;4955992;28;20236;-65
2023/06/17 03:31:21;;;;;;;6.03;5.53;;;;;;;10.43;100.00;96902.81;4945844;28;20343;-65
2023/06/17 03:33:50;;;;;;;5.80;5.30;;;;;;;10.37;100.00;96888.47;4905127;28;20224;-65
2023/06/17 03:36:19;;;;;;;5.80;5.40;;;;;;;10.35;100.00;96892.31;4947197;28;21076;-64
2023/06/17 03:38:47;;;;;;;5.83;5.43;;;;;;;10.36;100.00;96893.97;4970040;28;20299;-63
2023/06/17 03:41:16;;;;;;;6.23;5.73;;;;;;;10.35;100.00;96897.63;4971220;28;20285;-64
2023/06/17 03:43:43;;;;;;;6.43;6.03;;;;;;;10.31;100.00;96896.38;4969646;28;20624;-64
2023/06/17 03:46:11;;;;;;;6.07;5.67;;;;;;;10.33;100.00;96900.44;4947734;28;20325;-65
2023/06/17 03:48:39;;;;;;;6.13;5.73;;;;;;;10.31;100.00;96902.47;4929409;28;20317;-64
2023/06/17 03:51:07;;;;;;;6.40;6.00;;;;;;;10.33;100.00;96900.44;4949109;28;20214;-65
2023/06/17 03:53:34;;;;;;;5.67;5.27;;;;;;;10.28;100.00;96901.03;4956197;28;20237;-66
2023/06/17 03:56:02;;;;;;;6.43;5.83;;;;;;;10.31;100.00;96891.88;4974268;28;20408;-64
2023/06/17 03:58:32;;;;;;;5.93;5.53;;;;;;;10.28;100.00;96898.38;4963482;28;20620;-65
2023/06/17 04:01:00;;;;;;;6.33;5.93;;;;;;;10.42;100.00;96898.53;4949308;28;20701;-66
2023/06/17 04:06:03;;;;;;;6.07;5.57;;;;;;;10.50;100.00;96887.00;5197161;23;22511;-68
2023/06/17 04:08:32;;;;;;;6.10;5.57;;;;;;;10.44;100.00;96866.56;4902268;28;20281;-68
2023/06/17 04:11:00;;;;;;;6.30;5.83;;;;;;;10.73;100.00;96896.53;4893329;28;20519;-68
2023/06/17 04:13:28;;;;;;;6.27;5.80;;;;;;;10.82;100.00;96892.75;4913267;28;20225;-69
2023/06/17 04:15:57;;;;;;;6.33;5.83;;;;;;;10.92;100.00;96893.22;4926966;28;20226;-66
2023/06/17 04:18:27;;;;;;;6.80;6.20;;;;;;;10.99;100.00;96893.28;4915190;28;20217;-66
2023/06/17 04:20:56;;;;;;;6.63;6.13;;;;;;;10.99;100.00;96895.94;4922958;28;20246;-65
2023/06/17 04:23:24;;;;;;;6.60;5.90;;;;;;;10.96;100.00;96886.53;4928642;28;20269;-65
2023/06/17 04:25:52;;;;;;;7.10;6.50;;;;;;;10.94;100.00;96888.56;4894722;28;20313;-64
2023/06/17 04:28:20;;;;;;;7.53;7.03;;;;;;;10.91;100.00;96894.25;4932407;28;20306;-66
2023/06/17 04:30:47;;;;;;;6.30;5.87;;;;;;;10.97;100.00;96888.16;4906493;28;20383;-65
2023/06/17 04:33:16;;;;;;;6.07;5.67;;;;;;;11.01;100.00;96901.88;4922309;28;20348;-68
2023/06/17 04:35:44;;;;;;;6.57;6.10;;;;;;;10.99;100.00;96893.28;4915970;28;20234;-65
2023/06/17 04:38:12;;;;;;;7.07;6.57;;;;;;;10.94;100.00;96896.50;4926358;28;21344;-64
2023/06/17 04:40:39;;;;;;;7.40;6.90;;;;;;;10.91;100.00;96899.53;4909779;28;20215;-67
2023/06/17 04:43:07;;;;;;;7.40;6.90;;;;;;;10.93;100.00;96897.50;4915144;28;20656;-65
2023/06/17 04:45:35;;;;;;;7.10;6.57;;;;;;;10.90;100.00;96899.72;4934007;28;20222;-67
2023/06/17 04:48:05;;;;;;;6.50;6.10;;;;;;;10.89;100.00;96896.25;4917946;28;20241;-66
2023/06/17 04:50:35;;;;;;;7.97;7.37;;;;;;;10.89;100.00;96893.63;4949629;28;20721;-67
2023/06/17 04:53:04;;;;;;;7.27;6.77;;;;;;;10.80;100.00;96892.13;4897135;28;20210;-65
2023/06/17 04:55:35;;;;;;;7.63;7.10;;;;;;;10.76;100.00;96890.84;4950856;28;20317;-65
2023/06/17 04:58:04;;;;;;;7.60;7.00;;;;;;;10.87;100.00;96895.63;4885170;28;20414;-66
2023/06/17 05:00:31;;;;;;;7.93;7.33;;;;;;;11.02;100.00;96897.38;4925170;28;20207;-65
2023/06/17 05:02:59;;;;;;;7.50;6.83;;;;;;;11.21;100.00;96901.16;4935130;28;20269;-65
2023/06/17 05:05:27;;;;;;;8.03;7.43;;;;;;;11.39;100.00;96890.88;4956725;28;20222;-67
2023/06/17 05:07:56;;;;;;;7.87;7.30;;;;;;;11.67;100.00;96899.75;4919735;28;20236;-64
2023/06/17 05:10:23;;;;;;;8.53;7.70;;;;;;;11.77;100.00;96878.97;4933782;28;20214;-66
2023/06/17 05:12:51;;;;;;;8.50;7.70;;;;;;;12.00;100.00;96891.09;4894370;28;20719;-68
2023/06/17 05:15:19;;;;;;;7.80;7.30;;;;;;;12.34;100.00;96893.84;4937787;28;20249;-68
2023/06/17 05:17:46;;;;;;;7.47;6.97;;;;;;;12.66;100.00;96886.09;4947782;28;20368;-66
2023/06/17 05:20:14;;;;;;;7.33;6.83;;;;;;;12.77;100.00;96890.00;4932104;28;20953;-67
2023/06/17 05:22:42;;;;;;;7.13;6.67;;;;;;;12.83;100.00;96889.97;4916348;28;20340;-67
2023/06/17 05:25:11;;;;;;;7.40;6.80;;;;;;;12.80;100.00;96887.72;4932388;28;20211;-66
2023/06/17 05:27:38;;;;;;;7.30;6.80;;;;;;;12.81;100.00;96889.34;4910206;28;20684;-66
2023/06/17 05:30:07;;;;;;;7.30;6.80;;;;;;;12.76;100.00;96889.16;4926287;28;20218;-67
2023/06/17 05:32:35;;;;;;;8.30;7.70;;;;;;;12.94;100.00;96898.38;4941578;28;20673;-67
2023/06/17 05:35:03;;;;;;;7.67;7.17;;;;;;;13.14;100.00;96895.69;4934605;28;20210;-66
2023/06/17 05:37:31;;;;;;;6.80;6.40;;;;;;;13.48;100.00;96887.63;4910778;28;20771;-68
2023/06/17 05:39:59;;;;;;;7.73;7.23;;;;;;;13.79;100.00;96886.09;4949269;28;20253;-68
2023/06/17 05:42:28;;;;;;;7.60;7.00;;;;;;;14.16;100.00;96887.09;4932411;28;20612;-67
2023/06/17 05:44:55;;;;;;;7.13;6.63;;;;;;;14.69;100.00;96885.13;4893178;28;20731;-66
2023/06/17 05:47:23;;;;;;;6.90;6.50;;;;;;;14.63;100.00;96891.31;4923054;28;20481;-66
2023/06/17 05:49:50;;;;;;;7.00;6.60;;;;;;;15.01;100.00;96887.75;4953601;28;20288;-65
2023/06/17 05:52:18;;;;;;;6.80;6.17;;;;;;;15.06;100.00;96889.75;4928119;28;20301;-67
2023/06/17 05:54:46;;;;;;;6.53;6.10;;;;;;;15.21;100.00;96889.41;4919489;28;20300;-66
2023/06/17 05:57:13;;;;;;;6.70;6.30;;;;;;;15.17;100.00;96886.38;4936221;28;20230;-68
2023/06/17 05:59:42;;;;;;;7.57;7.07;;;;;;;15.08;100.00;96890.34;4914831;28;20222;-66
2023/06/17 06:02:10;;;;;;;6.77;6.37;;;;;;;14.66;100.00;96895.38;4909995;28;20253;-69
2023/06/17 06:04:37;;;;;;;6.97;6.47;;;;;;;14.74;100.00;96900.47;4953416;28;20914;-67
2023/06/17 06:07:05;;;;;;;7.57;7.07;;;;;;;14.79;100.00;96894.50;4930262;28;20325;-67
2023/06/17 06:09:32;;;;;;;7.10;6.70;;;;;;;14.62;100.00;96898.50;4920764;28;21039;-67
2023/06/17 06:12:00;;;;;;;7.40;6.90;;;;;;;14.91;100.00;96890.09;4955134;28;20713;-68
2023/06/17 06:14:28;;;;;;;6.70;6.30;;;;;;;15.19;100.00;96889.63;4893770;28;21210;-65
2023/06/17 06:16:57;;;;;;;6.83;6.33;;;;;;;15.16;100.00;96891.91;4932985;28;20313;-67
2023/06/17 06:19:24;;;;;;;6.63;6.23;;;;;;;15.53;100.00;96896.44;4928304;28;20681;-67
2023/06/17 06:21:52;;;;;;;6.90;6.50;;;;;;;15.85;100.00;96906.97;4934565;28;20210;-68
2023/06/17 06:24:20;;;;;;;6.90;6.50;;;;;;;15.91;100.00;96904.25;4944061;28;20241;-67
2023/06/17 06:26:47;;;;;;;6.10;5.60;;;;;;;16.28;100.00;96907.88;4924531;28;20233;-66
2023/06/17 06:29:16;;;;;;;5.83;5.43;;;;;;;16.40;100.00;96913.28;4907857;28;20309;-67
2023/06/17 06:31:44;;;;;;;6.50;6.00;;;;;;;16.93;100.00;96914.31;4924998;28;20211;-68
2023/06/17 06:34:12;;;;;;;5.13;4.83;;;;;;;16.86;100.00;96919.75;4945879;28;20657;-66
2023/06/17 06:36:41;;;;;;;6.33;5.93;;;;;;;16.40;100.00;96906.06;4932973;28;20796;-67
2023/06/17 06:39:08;;;;;;;5.30;5.00;;;;;;;16.37;100.00;96911.06;4947648;28;20334;-67
2023/06/17 06:41:37;;;;;;;5.87;5.57;;;;;;;16.05;100.00;96909.41;4924605;28;21001;-67
2023/06/17 06:44:05;;;;;;;6.40;6.00;;;;;;;16.04;100.00;96913.13;4933428;28;20238;-67
2023/06/17 06:46:33;;;;;;;6.10;5.70;;;;;;;15.84;100.00;96914.19;4919765;28;20237;-69
2023/06/17 06:49:01;;;;;;;6.40;6.00;;;;;;;15.68;100.00;96906.75;4929408;28;20297;-67
2023/06/17 06:51:29;;;;;;;6.10;5.60;;;;;;;15.91;100.00;96912.25;4950085;28;20702;-68
2023/06/17 06:53:57;;;;;;;6.40;6.00;;;;;;;16.08;100.00;96916.16;4932360;28;20299;-68
2023/06/17 06:56:25;;;;;;;5.77;5.37;;;;;;;16.32;100.00;96917.06;4916877;28;21021;-68
2023/06/17 06:58:56;;;;;;;6.87;6.37;;;;;;;16.82;100.00;96913.25;4936239;28;20391;-67
2023/06/17 07:01:23;;;;;;;8.47;7.77;;;;;;;17.00;100.00;96912.34;4909980;28;20214;-67
2023/06/17 07:03:51;;;;;;;11.10;10.20;;;;;;;16.97;100.00;96914.63;4932049;28;20218;-66
2023/06/17 07:06:19;;;;;;;7.33;6.77;;;;;;;17.26;100.00;96906.78;4946591;28;20361;-67
2023/06/17 07:08:48;;;;;;;5.47;5.13;;;;;;;17.81;100.00;96908.19;4931656;28;20301;-67
2023/06/17 07:11:15;;;;;;;6.33;5.93;;;;;;;17.44;100.00;96912.00;4949318;28;20269;-69
2023/06/17 07:13:43;;;;;;;6.13;5.70;;;;;;;17.81;100.00;96912.75;4897268;28;20220;-67
2023/06/17 07:16:11;;;;;;;5.90;5.50;;;;;;;17.92;100.00;96911.91;4888678;28;21232;-68
2023/06/17 07:18:38;;;;;;;6.00;5.60;;;;;;;18.14;100.00;96909.41;4955584;28;20222;-67
2023/06/17 07:21:06;;;;;;;5.70;5.30;;;;;;;18.01;100.00;96915.84;4931842;28;20405;-67
2023/06/17 07:23:33;;;;;;;5.30;4.97;;;;;;;18.48;100.00;96914.84;4930516;28;20268;-68
2023/06/17 07:26:02;;;;;;;5.93;5.43;;;;;;;18.76;100.00;96912.34;4947031;28;20226;-67
2023/06/17 07:28:31;;;;;;;5.80;5.43;;;;;;;18.88;100.00;96915.75;4924972;28;20308;-67
2023/06/17 07:30:59;;;;;;;5.87;5.47;;;;;;;18.78;100.00;96911.06;4889663;28;20459;-65
2023/06/17 07:33:27;;;;;;;6.27;5.77;;;;;;;18.69;100.00;96909.81;4950473;28;20586;-67
2023/06/17 07:35:55;;;;;;;6.03;5.53;;;;;;;18.90;100.00;96902.91;4929646;28;20312;-68
2023/06/17 07:38:23;;;;;;;5.87;5.47;;;;;;;18.68;100.00;96916.22;4921235;28;20233;-68
2023/06/17 07:40:51;;;;;;;5.70;5.30;;;;;;;19.08;100.00;96915.28;4948880;28;20638;-68
2023/06/17 07:43:21;;;;;;;5.97;5.57;;;;;;;19.20;100.00;96923.25;4921751;28;20340;-66
2023/06/17 07:45:49;;;;;;;6.10;5.60;;;;;;;19.37;100.00;96906.31;4914302;28;20277;-66
2023/06/17 07:48:16;;;;;;;10.57;5.60;;;;;;;19.62;100.00;96916.59;4930716;28;20221;-68
2023/06/17 07:50:44;;;;;;;5.37;4.97;;;;;;;19.50;100.00;96911.31;4925643;28;20203;-67
2023/06/17 07:53:13;;;;;;;5.50;5.10;;;;;;;19.53;100.00;96910.03;4945091;28;20230;-68
2023/06/17 07:55:40;;;;;;;5.50;5.10;;;;;;;19.48;100.00;96913.44;4926652;28;20627;-68
2023/06/17 07:58:08;;;;;;;5.43;5.03;;;;;;;19.08;100.00;96911.81;4954748;28;20226;-68
2023/06/17 08:00:37;;;;;;;4.97;4.63;;;;;;;18.96;100.00;96901.13;4903055;28;20395;-67
2023/06/17 08:03:06;;;;;;;5.30;4.90;;;;;;;19.06;100.00;96903.97;4907988;28;20768;-67
2023/06/17 08:05:36;;;;;;;5.23;4.80;;;;;;;19.17;100.00;96904.94;4932719;28;20715;-66
2023/06/17 08:08:04;;;;;;;4.97;4.67;;;;;;;19.24;100.00;96896.72;4948087;28;20297;-66
2023/06/17 08:10:31;;;;;;;5.60;5.30;;;;;;;19.60;100.00;96893.69;4935388;28;20261;-66
2023/06/17 08:12:59;;;;;;;5.87;5.47;;;;;;;19.64;100.00;96898.34;4952057;28;20213;-65
2023/06/17 08:15:27;;;;;;;5.90;4.97;;;;;;;19.64;100.00;96884.91;4914022;28;20733;-67
2023/06/17 08:17:56;;;;;;;5.53;5.13;;;;;;;19.85;99.79;96889.72;4899209;28;20250;-67
2023/06/17 08:20:24;;;;;;;5.80;5.33;;;;;;;19.81;100.00;96884.84;4951434;28;20226;-67
2023/06/17 08:22:52;;;;;;;4.53;4.33;;;;;;;20.04;98.61;96890.22;4936441;28;20364;-67
2023/06/17 08:25:20;;;;;;;5.23;4.73;;;;;;;19.95;96.84;96885.28;4934439;28;20238;-68
2023/06/17 08:27:48;;;;;;;5.27;4.87;;;;;;;19.93;94.49;96886.59;4951010;28;20286;-67
2023/06/17 08:30:15;;;;;;;5.20;4.90;;;;;;;20.15;96.27;96880.38;4913726;28;20216;-66
2023/06/17 08:32:43;;;;;;;6.07;5.60;;;;;;;20.28;90.95;96876.50;4891189;28;20941;-66
2023/06/17 08:35:14;;;;;;;5.47;5.07;;;;;;;20.49;96.16;96877.50;4934811;28;20222;-68
2023/06/17 08:37:41;;;;;;;5.80;5.40;;;;;;;20.58;89.09;96875.13;4929679;28;20244;-68
2023/06/17 08:40:10;;;;;;;5.23;4.93;;;;;;;20.84;86.44;96867.28;4941195;28;20199;-67
2023/06/17 08:42:39;;;;;;;5.10;4.80;;;;;;;21.01;81.32;96867.94;4934287;28;20261;-68
2023/06/17 08:45:07;;;;;;;5.53;5.13;;;;;;;21.09;83.06;96870.16;4920525;28;20302;-68
2023/06/17 08:47:36;;;;;;;5.43;5.00;;;;;;;21.33;84.49;96858.97;4898724;28;20214;-66
2023/06/17 08:50:04;;;;;;;5.40;5.00;;;;;;;21.39;77.30;96857.13;4930877;28;20312;-66
2023/06/17 08:52:34;;;;;;;5.67;5.27;;;;;;;21.71;72.14;96852.69;4926995;28;20691;-67
2023/06/17 08:55:02;;;;;;;6.07;5.57;;;;;;;22.12;71.43;96852.81;4952640;28;20285;-66
2023/06/17 08:57:31;;;;;;;5.73;5.33;;;;;;;21.85;73.68;96848.44;4934611;28;20238;-68
2023/06/17 08:59:59;;;;;;;5.47;4.90;;;;;;;22.38;71.00;96842.06;4919144;28;20272;-66
2023/06/17 09:02:27;;;;;;;5.50;5.10;;;;;;;22.51;68.13;96838.03;4915760;28;20214;-67
2023/06/17 09:04:55;;;;;;;5.37;5.07;;;;;;;21.96;71.23;96847.38;4916161;28;20511;-67
2023/06/17 09:07:23;;;;;;;5.57;5.17;;;;;;;21.67;75.76;96852.44;4911451;28;20218;-67
2023/06/17 09:09:55;;;;;;;6.07;5.07;;;;;;;21.71;74.72;96847.28;4950400;28;20428;-67
2023/06/17 09:12:24;;;;;;;5.60;5.23;;;;;;;22.07;77.86;96842.84;4932088;28;20473;-67
2023/06/17 09:14:54;;;;;;;5.53;5.13;;;;;;;22.24;60.24;96839.06;4915159;28;20716;-66
2023/06/17 09:17:28;;;;;;;5.47;5.13;;;;;;;22.44;59.06;96848.28;4948193;28;20626;-69
2023/06/17 09:19:56;;;;;;;5.53;5.13;;;;;;;22.50;54.73;96836.44;4884266;28;20238;-68
2023/06/17 09:22:26;;;;;;;5.93;5.43;;;;;;;22.50;55.75;96841.81;4907116;28;20419;-67
2023/06/17 09:24:59;;;;;;;5.33;4.77;;;;;;;22.94;53.28;96841.25;4950949;28;20538;-67
2023/06/17 09:27:27;;;;;;;5.73;5.20;;;;;;;23.05;51.64;96839.34;4944430;28;20572;-67
2023/06/17 09:30:06;;;;;;;5.50;5.00;;;;;;;23.19;49.53;96825.25;4941133;28;20456;-69
2023/06/17 09:32:38;;;;;;;5.57;5.17;;;;;;;23.14;47.72;96831.50;4912879;28;20250;-68
2023/06/17 09:35:07;;;;;;;4.97;4.67;;;;;;;22.92;49.53;96834.47;4911248;28;20210;-68
2023/06/17 09:37:35;;;;;;;5.67;5.17;;;;;;;23.34;48.57;96822.56;4909593;28;20337;-67
2023/06/17 09:40:11;;;;;;;5.63;5.23;;;;;;;22.79;48.45;96819.69;4947808;28;20230;-68
2023/06/17 09:42:39;;;;;;;6.37;5.83;;;;;;;22.77;48.21;96832.66;4934803;28;20242;-67
2023/06/17 09:45:11;;;;;;;6.30;5.70;;;;;;;22.84;48.62;96828.56;4951790;28;20237;-67
2023/06/17 09:47:39;;;;;;;5.50;5.10;;;;;;;22.97;49.36;96829.09;4918608;28;20296;-69
2023/06/17 09:50:09;;;;;;;5.60;5.30;;;;;;;22.92;46.58;96829.09;4910479;28;20207;-68
2023/06/17 09:52:39;;;;;;;5.67;5.30;;;;;;;22.65;46.82;96822.13;4909562;28;20238;-67
2023/06/17 09:55:09;;;;;;;5.77;5.37;;;;;;;22.73;46.91;96816.16;4939268;28;20290;-68
2023/06/17 09:57:39;;;;;;;5.90;5.40;;;;;;;22.80;47.31;96810.50;4939947;28;20207;-68
2023/06/17 10:00:10;;;;;;;5.93;5.33;;;;;;;22.88;47.91;96825.31;4950505;28;21755;-67
2023/06/17 10:02:39;;;;;;;6.23;5.60;;;;;;;22.89;48.18;96816.13;4916648;28;20233;-67
2023/06/17 10:05:10;;;;;;;5.93;5.47;;;;;;;22.88;49.30;96809.09;4918201;28;20221;-70
2023/06/17 10:07:38;;;;;;;5.90;5.50;;;;;;;23.18;46.98;96805.53;4929259;28;20788;-69
2023/06/17 10:10:08;;;;;;;6.00;5.00;;;;;;;23.22;45.61;96816.59;4921143;28;20797;-67
2023/06/17 10:12:40;;;;;;;6.10;5.63;;;;;;;22.98;45.56;96819.91;4954725;28;20229;-69
2023/06/17 10:15:09;;;;;;;5.03;4.63;;;;;;;22.88;43.98;96801.00;4938696;28;20202;-68
2023/06/17 10:17:39;;;;;;;4.90;4.60;;;;;;;22.87;45.29;96819.13;4916727;28;20230;-68
2023/06/17 10:20:09;;;;;;;5.20;4.70;;;;;;;22.93;45.87;96807.22;4953141;28;20289;-67
2023/06/17 10:22:38;;;;;;;5.87;5.27;;;;;;;22.99;46.87;96806.13;4891522;28;20238;-69
2023/06/17 10:25:09;;;;;;;5.57;5.17;;;;;;;22.56;47.01;96797.53;4936730;28;20221;-68
2023/06/17 10:27:38;;;;;;;5.93;5.33;;;;;;;22.62;45.69;96815.34;4953742;28;20281;-69
2023/06/17 10:30:25;;;;;;;5.63;5.27;;;;;;;22.51;46.71;96800.25;4936326;28;20294;-68
2023/06/17 10:32:53;;;;;;;5.70;5.27;;;;;;;22.66;45.21;96807.53;4945020;28;20246;-69
2023/06/17 10:35:21;;;;;;;5.40;5.10;;;;;;;22.83;45.70;96785.63;4921726;28;20282;-69
2023/06/17 10:37:50;;;;;;;6.27;5.67;;;;;;;22.87;44.23;96796.69;4914911;28;20209;-68
2023/06/17 10:40:25;;;;;;;5.13;4.73;;;;;;;23.03;43.99;96797.47;4928373;28;20421;-67
2023/06/17 10:42:56;;;;;;;4.87;4.47;;;;;;;23.01;42.87;96783.44;4940871;28;20436;-68
2023/06/17 10:45:25;;;;;;;5.40;5.00;;;;;;;22.99;43.44;96783.72;4938631;28;20879;-70
2023/06/17 10:47:52;;;;;;;4.77;4.47;;;;;;;23.22;44.12;96786.88;4947465;28;20509;-69
2023/06/17 10:50:23;;;;;;;6.40;4.90;;;;;;;23.44;42.74;96770.31;4920835;28;20214;-69
2023/06/17 10:52:59;;;;;;;6.13;4.40;;;;;;;23.55;41.48;96771.91;4917440;28;20403;-68
2023/06/17 10:55:27;;;;;;;4.90;4.60;;;;;;;23.73;42.49;96779.66;4924145;28;20280;-67
2023/06/17 10:57:58;;;;;;;7.37;5.03;;;;;;;23.95;42.00;96771.13;4946337;28;20449;-69
2023/06/17 11:00:25;;;;;;;5.10;4.70;;;;;;;24.05;40.49;96791.91;4936524;28;20253;-69
2023/06/17 11:02:53;;;;;;;5.07;4.63;;;;;;;23.44;41.49;96777.63;4949632;28;20388;-67
2023/06/17 11:05:21;;;;;;;4.97;4.57;;;;;;;23.03;41.17;96775.84;4948181;28;20230;-67
2023/06/17 11:07:50;;;;;;;5.87;5.37;;;;;;;22.85;42.78;96783.47;4883160;28;20475;-68
2023/06/17 11:10:18;;;;;;;4.80;4.50;;;;;;;23.01;41.03;96776.16;4935142;28;20229;-67
2023/06/17 11:12:46;;;;;;;5.63;5.10;;;;;;;23.18;40.92;96767.72;4933635;28;20446;-69
2023/06/17 11:15:18;;;;;;;4.87;4.53;;;;;;;23.84;40.01;96773.88;4954335;28;20226;-69
2023/06/17 11:17:46;;;;;;;8.50;5.23;;;;;;;24.08;40.57;96775.13;4931891;28;20504;-69
2023/06/17 11:20:14;;;;;;;6.23;5.73;;;;;;;23.90;40.71;96766.56;4944647;28;20920;-67
2023/06/17 11:22:42;;;;;;;5.50;5.10;;;;;;;23.73;41.09;96766.13;4875951;28;21722;-69
2023/06/17 11:25:10;;;;;;;5.60;5.23;;;;;;;23.55;42.11;96757.56;4954535;28;20315;-67
2023/06/17 11:27:40;;;;;;;4.77;4.47;;;;;;;23.68;41.92;96767.78;4914542;28;20293;-68
2023/06/17 11:30:09;;;;;;;6.00;5.50;;;;;;;23.69;42.38;96764.00;4947289;28;20207;-68
2023/06/17 11:32:40;;;;;;;5.47;5.07;;;;;;;23.61;41.99;96755.66;4927258;28;20217;-70
2023/06/17 11:35:09;;;;;;;5.23;4.93;;;;;;;23.65;39.45;96752.09;4955696;28;20212;-68